VIAG/AGR METAR and TAF weather

Enter ICAO airport designator
Station Type Date Time Source
VIAG METAR 2021/11/17 18:30 UTC NOAA

VIAG 171830Z 00000KT 1500 BR SCT250 13/12 Q1014 NOSIG


Station Type Date Time Source
VIAG Decoded METAR 2021/11/17 18:30 UTC NOAA

Agra, India (VIAG) 27-09N 077-58E 169M
Nov 17, 2021 - 01:30 PM EST / 2021.11.17 1830 UTC
Wind: Calm:0
Visibility: less than 1 mile:0
Sky conditions: partly cloudy
Weather: mist
Temperature: 55 F (13 C)
Dew Point: 53 F (12 C)
Relative Humidity: 93%
Pressure (altimeter): 29.94 in. Hg (1014 hPa)
ob: VIAG 171830Z 00000KT 1500 BR SCT250 13/12 Q1014 NOSIG
cycle: 18

Station Type Date Time Source
VIAG TAF 2022/01/29 00:30 UTC NOAA

TAF VIAG 282130Z 2900/2912 VRB02KT 2000 BR NSC
BECMG 2904/2905 32010KT 4000 HZ
BECMG FM 090600 6000 NSC

Example: see airport list